Flight Track Log - Related Links

Times and Time Zones

All times are in EST time to prevent confusion due to time zone crossing. See the DAL918 flight status page for this flight to view local times or setup timezone preferences in your user account.

Time Position Orientation Groundspeed Altitude Reporting Facility
EST Latitude Longitude Course Direction KTS MPH feet Rate Location/Type
Sun 07:12:54 PM 33.6203 -84.4878 90° East 367 422 2,600  Level Atlanta Center
Sun 07:13:54 PM 33.5803 -84.5625 237° Southwest 320 368 5,800 2,600 Climbing Atlanta Center
Sun 07:14:54 PM 33.5156 -84.5844 196° South 281 323 7,800 2,150 Climbing Atlanta Center
Sun 07:15:54 PM 33.4511 -84.5169 139° Southeast 324 373 10,100 1,900 Climbing Atlanta Center
Sun 07:16:54 PM 33.4472 -84.4097 92° East 350 403 11,600 1,300 Climbing Atlanta Center
Sun 07:17:54 PM 33.4581 -84.2778 84° East 366 421 12,700 1,650 Climbing Atlanta Center
Sun 07:18:00 PM 33.5492 -83.5672 90° East  Level Estimated
Sun 07:18:54 PM 33.4747 -84.1408 82° East 405 466 14,900  Level Atlanta Center
Sun 07:19:54 PM 33.4917 -84.0014 82° East 415 478 16,200 1,000 Climbing Atlanta Center
Sun 07:20:54 PM 33.5061 -83.8519 83° East 433 498 16,900 400 Climbing Atlanta Center
Sun 07:21:54 PM 33.5244 -83.7000 82° East 456 525 17,000  Climbing Atlanta Center
Sun 07:22:54 PM 33.5408 -83.5678 82° East 456 525 16,900  Descending Atlanta Center
Sun 07:23:54 PM 33.5653 -83.4181 79° East 456 525 17,000 50 Climbing Atlanta Center
Sun 07:24:54 PM 33.5936 -83.2731 77° East 451 519 17,000  Level Atlanta Center
Sun 07:25:54 PM 33.6114 -83.1208 82° East 451 519 17,000 -450 Level Atlanta Center
Sun 07:26:54 PM 33.6308 -82.9708 81° East 451 519 16,100 -1,100 Descending Atlanta Center
Sun 07:27:54 PM 33.6464 -82.8286 82° East 437 503 14,800 -1,450 Descending Atlanta Center
Sun 07:28:54 PM 33.6575 -82.6986 84° East 406 467 13,200 -1,500 Descending Atlanta Center
Sun 07:29:54 PM 33.6686 -82.5661 84° East 373 429 11,800 -1,350 Descending Atlanta Center
Sun 07:30:54 PM 33.6736 -82.4636 87° East 331 381 10,500 -1,850 Descending Atlanta Center
Sun 07:31:54 PM 33.6681 -82.3614 94° East 313 360 8,100 -2,350 Descending Atlanta Center
Sun 07:32:54 PM 33.6394 -82.2697 111° Southeast 295 339 5,800 -2,200 Descending Atlanta Center
Sun 07:33:54 PM 33.6111 -82.1831 111° Southeast 284 327 3,700 -1,500 Descending Atlanta Center
Sun 07:34:54 PM 33.5828 -82.1114 115° Southeast 262 302 2,800 -800 Descending Atlanta Center
Sun 07:35:54 PM 33.5547 -82.0522 120° Southeast 225 259 2,100 -700 Descending Atlanta Center
Sun 07:37:00 PM 33.4761 -82.0214 157° South  Level FlightAware Approximate

Login

Don't have an account? Register now (free) for customized features, flight alerts, and more!